sensor_id;sensor_type;location;lat;lon;timestamp;temperature;humidity
16513;DHT22;8369;48.030;11.598;2023-03-23T00:02:11;8.60;99.90
16513;DHT22;8369;48.030;11.598;2023-03-23T00:04:58;8.60;99.90
16513;DHT22;8369;48.030;11.598;2023-03-23T00:07:48;8.60;99.90
16513;DHT22;8369;48.030;11.598;2023-03-23T00:13:41;8.60;99.90
16513;DHT22;8369;48.030;11.598;2023-03-23T00:16:43;8.60;99.90
16513;DHT22;8369;48.030;11.598;2023-03-23T00:19:15;8.60;99.90
16513;DHT22;8369;48.030;11.598;2023-03-23T00:21:48;8.60;99.90
16513;DHT22;8369;48.030;11.598;2023-03-23T00:24:25;8.50;99.90
16513;DHT22;8369;48.030;11.598;2023-03-23T00:26:58;8.50;99.90
16513;DHT22;8369;48.030;11.598;2023-03-23T00:29:31;8.50;99.90
16513;DHT22;8369;48.030;11.598;2023-03-23T00:32:09;8.50;99.90
16513;DHT22;8369;48.030;11.598;2023-03-23T00:34:51;8.50;99.90
16513;DHT22;8369;48.030;11.598;2023-03-23T00:37:26;8.50;99.90
16513;DHT22;8369;48.030;11.598;2023-03-23T00:39:55;8.50;99.90
16513;DHT22;8369;48.030;11.598;2023-03-23T00:42:24;8.50;99.90
16513;DHT22;8369;48.030;11.598;2023-03-23T00:44:55;8.50;99.90
16513;DHT22;8369;48.030;11.598;2023-03-23T00:47:26;8.60;99.90
16513;DHT22;8369;48.030;11.598;2023-03-23T00:49:58;8.60;99.90
16513;DHT22;8369;48.030;11.598;2023-03-23T00:52:35;8.60;99.90
16513;DHT22;8369;48.030;11.598;2023-03-23T00:55:05;8.60;99.90
16513;DHT22;8369;48.030;11.598;2023-03-23T00:57:37;8.60;99.90
16513;DHT22;8369;48.030;11.598;2023-03-23T01:00:25;8.60;99.90
16513;DHT22;8369;48.030;11.598;2023-03-23T01:02:55;8.60;99.90
16513;DHT22;8369;48.030;11.598;2023-03-23T01:05:37;8.60;99.90
16513;DHT22;8369;48.030;11.598;2023-03-23T01:08:07;8.60;99.90
16513;DHT22;8369;48.030;11.598;2023-03-23T01:10:45;8.60;99.90
16513;DHT22;8369;48.030;11.598;2023-03-23T01:13:38;8.60;99.90
16513;DHT22;8369;48.030;11.598;2023-03-23T01:16:08;8.60;99.90
16513;DHT22;8369;48.030;11.598;2023-03-23T01:18:39;8.60;99.90
16513;DHT22;8369;48.030;11.598;2023-03-23T01:21:32;8.60;99.90
16513;DHT22;8369;48.030;11.598;2023-03-23T01:24:02;8.60;99.90
16513;DHT22;8369;48.030;11.598;2023-03-23T01:26:39;8.60;99.90
16513;DHT22;8369;48.030;11.598;2023-03-23T01:29:19;8.60;99.90
16513;DHT22;8369;48.030;11.598;2023-03-23T01:31:54;8.60;99.90
16513;DHT22;8369;48.030;11.598;2023-03-23T01:34:25;8.60;99.90
16513;DHT22;8369;48.030;11.598;2023-03-23T01:36:51;8.60;99.90
16513;DHT22;8369;48.030;11.598;2023-03-23T01:39:18;8.60;99.90
16513;DHT22;8369;48.030;11.598;2023-03-23T01:41:47;8.60;99.90
16513;DHT22;8369;48.030;11.598;2023-03-23T01:46:50;8.60;99.90
16513;DHT22;8369;48.030;11.598;2023-03-23T01:49:33;8.60;99.90
16513;DHT22;8369;48.030;11.598;2023-03-23T01:52:14;8.70;99.90
16513;DHT22;8369;48.030;11.598;2023-03-23T01:55:00;8.70;99.90
16513;DHT22;8369;48.030;11.598;2023-03-23T01:57:30;8.70;99.90
16513;DHT22;8369;48.030;11.598;2023-03-23T01:59:59;8.70;99.90
16513;DHT22;8369;48.030;11.598;2023-03-23T02:02:43;8.70;99.90
16513;DHT22;8369;48.030;11.598;2023-03-23T02:05:24;8.80;99.90
16513;DHT22;8369;48.030;11.598;2023-03-23T02:07:59;8.80;99.90
16513;DHT22;8369;48.030;11.598;2023-03-23T02:10:39;8.80;99.90
16513;DHT22;8369;48.030;11.598;2023-03-23T02:13:16;8.90;99.90
16513;DHT22;8369;48.030;11.598;2023-03-23T02:27:08;9.00;99.90
16513;DHT22;8369;48.030;11.598;2023-03-23T02:32:49;9.00;99.90
16513;DHT22;8369;48.030;11.598;2023-03-23T02:38:42;9.00;99.90
16513;DHT22;8369;48.030;11.598;2023-03-23T02:41:38;9.00;99.90
16513;DHT22;8369;48.030;11.598;2023-03-23T02:44:08;9.00;99.90
16513;DHT22;8369;48.030;11.598;2023-03-23T02:46:47;8.90;99.90
16513;DHT22;8369;48.030;11.598;2023-03-23T02:49:20;8.90;99.90
16513;DHT22;8369;48.030;11.598;2023-03-23T02:55:02;8.80;99.90
16513;DHT22;8369;48.030;11.598;2023-03-23T02:57:38;8.80;99.90
16513;DHT22;8369;48.030;11.598;2023-03-23T03:00:06;8.80;99.90
16513;DHT22;8369;48.030;11.598;2023-03-23T03:02:43;8.80;99.90
16513;DHT22;8369;48.030;11.598;2023-03-23T03:10:46;8.80;99.90
16513;DHT22;8369;48.030;11.598;2023-03-23T03:16:22;8.80;99.90
16513;DHT22;8369;48.030;11.598;2023-03-23T03:19:18;8.70;99.90
16513;DHT22;8369;48.030;11.598;2023-03-23T03:21:47;8.70;99.90
16513;DHT22;8369;48.030;11.598;2023-03-23T03:24:18;8.70;99.90
16513;DHT22;8369;48.030;11.598;2023-03-23T03:26:54;8.70;99.90
16513;DHT22;8369;48.030;11.598;2023-03-23T03:29:42;8.70;99.90
16513;DHT22;8369;48.030;11.598;2023-03-23T03:32:20;8.60;99.90
16513;DHT22;8369;48.030;11.598;2023-03-23T03:34:52;8.60;99.90
16513;DHT22;8369;48.030;11.598;2023-03-23T03:37:24;8.60;99.90
16513;DHT22;8369;48.030;11.598;2023-03-23T03:39:55;8.60;99.90
16513;DHT22;8369;48.030;11.598;2023-03-23T03:42:25;8.50;99.90
16513;DHT22;8369;48.030;11.598;2023-03-23T03:44:57;8.50;99.90
16513;DHT22;8369;48.030;11.598;2023-03-23T03:47:29;8.50;99.90
16513;DHT22;8369;48.030;11.598;2023-03-23T03:49:58;8.50;99.90
16513;DHT22;8369;48.030;11.598;2023-03-23T03:52:25;8.50;99.90
16513;DHT22;8369;48.030;11.598;2023-03-23T03:54:58;8.50;99.90
16513;DHT22;8369;48.030;11.598;2023-03-23T03:57:32;8.40;99.90
16513;DHT22;8369;48.030;11.598;2023-03-23T04:00:06;8.40;99.90
16513;DHT22;8369;48.030;11.598;2023-03-23T04:02:46;8.40;99.90
16513;DHT22;8369;48.030;11.598;2023-03-23T04:05:21;8.30;99.90
16513;DHT22;8369;48.030;11.598;2023-03-23T04:07:51;8.30;99.90
16513;DHT22;8369;48.030;11.598;2023-03-23T04:10:21;8.30;99.90
16513;DHT22;8369;48.030;11.598;2023-03-23T04:12:52;8.30;99.90
16513;DHT22;8369;48.030;11.598;2023-03-23T04:15:21;8.30;99.90
16513;DHT22;8369;48.030;11.598;2023-03-23T04:17:55;8.30;99.90
16513;DHT22;8369;48.030;11.598;2023-03-23T04:20:40;8.30;99.90
16513;DHT22;8369;48.030;11.598;2023-03-23T04:23:06;8.20;99.90
16513;DHT22;8369;48.030;11.598;2023-03-23T04:25:36;8.20;99.90
16513;DHT22;8369;48.030;11.598;2023-03-23T04:28:04;8.20;99.90
16513;DHT22;8369;48.030;11.598;2023-03-23T04:30:38;8.20;99.90
16513;DHT22;8369;48.030;11.598;2023-03-23T04:33:09;8.30;99.90
16513;DHT22;8369;48.030;11.598;2023-03-23T04:35:40;8.20;99.90
16513;DHT22;8369;48.030;11.598;2023-03-23T04:38:07;8.20;99.90
16513;DHT22;8369;48.030;11.598;2023-03-23T04:40:42;8.20;99.90
16513;DHT22;8369;48.030;11.598;2023-03-23T04:43:11;8.20;99.90
16513;DHT22;8369;48.030;11.598;2023-03-23T04:45:38;8.20;99.90
16513;DHT22;8369;48.030;11.598;2023-03-23T04:48:08;8.20;99.90
16513;DHT22;8369;48.030;11.598;2023-03-23T04:50:37;8.20;99.90
16513;DHT22;8369;48.030;11.598;2023-03-23T04:53:05;8.20;99.90
16513;DHT22;8369;48.030;11.598;2023-03-23T04:55:33;8.20;99.90
16513;DHT22;8369;48.030;11.598;2023-03-23T04:58:05;8.20;99.90
16513;DHT22;8369;48.030;11.598;2023-03-23T05:00:35;8.20;99.90
16513;DHT22;8369;48.030;11.598;2023-03-23T05:03:02;8.20;99.90
16513;DHT22;8369;48.030;11.598;2023-03-23T05:05:28;8.20;99.90
16513;DHT22;8369;48.030;11.598;2023-03-23T05:07:56;8.20;99.90
16513;DHT22;8369;48.030;11.598;2023-03-23T05:10:23;8.30;99.90
16513;DHT22;8369;48.030;11.598;2023-03-23T05:12:50;8.30;99.90
16513;DHT22;8369;48.030;11.598;2023-03-23T05:15:16;8.30;99.90
16513;DHT22;8369;48.030;11.598;2023-03-23T05:17:42;8.30;99.90
16513;DHT22;8369;48.030;11.598;2023-03-23T05:20:13;8.30;99.90
16513;DHT22;8369;48.030;11.598;2023-03-23T05:22:42;8.30;99.90
16513;DHT22;8369;48.030;11.598;2023-03-23T05:25:09;8.30;99.90
16513;DHT22;8369;48.030;11.598;2023-03-23T05:27:37;8.30;99.90
16513;DHT22;8369;48.030;11.598;2023-03-23T05:30:09;8.30;99.90
16513;DHT22;8369;48.030;11.598;2023-03-23T05:32:39;8.40;99.90
16513;DHT22;8369;48.030;11.598;2023-03-23T05:35:08;8.40;99.90
16513;DHT22;8369;48.030;11.598;2023-03-23T05:37:34;8.40;99.90
16513;DHT22;8369;48.030;11.598;2023-03-23T05:40:01;8.40;99.90
16513;DHT22;8369;48.030;11.598;2023-03-23T05:42:34;8.40;99.90
16513;DHT22;8369;48.030;11.598;2023-03-23T05:45:03;8.50;99.90
16513;DHT22;8369;48.030;11.598;2023-03-23T05:47:30;8.50;99.90
16513;DHT22;8369;48.030;11.598;2023-03-23T05:49:56;8.60;99.90
16513;DHT22;8369;48.030;11.598;2023-03-23T05:52:25;8.60;99.90
16513;DHT22;8369;48.030;11.598;2023-03-23T05:54:56;8.60;99.90
16513;DHT22;8369;48.030;11.598;2023-03-23T05:57:22;8.60;99.90
16513;DHT22;8369;48.030;11.598;2023-03-23T05:59:48;8.60;99.90
16513;DHT22;8369;48.030;11.598;2023-03-23T06:02:14;8.70;99.90
16513;DHT22;8369;48.030;11.598;2023-03-23T06:04:41;8.70;99.90
16513;DHT22;8369;48.030;11.598;2023-03-23T06:07:08;8.70;99.90
16513;DHT22;8369;48.030;11.598;2023-03-23T06:09:39;8.70;99.90
16513;DHT22;8369;48.030;11.598;2023-03-23T06:12:06;8.80;99.90
16513;DHT22;8369;48.030;11.598;2023-03-23T06:14:37;8.80;99.90
16513;DHT22;8369;48.030;11.598;2023-03-23T06:17:07;8.80;99.90
16513;DHT22;8369;48.030;11.598;2023-03-23T06:19:44;8.90;99.90
16513;DHT22;8369;48.030;11.598;2023-03-23T06:22:13;8.90;99.90
16513;DHT22;8369;48.030;11.598;2023-03-23T06:24:39;9.00;99.90
16513;DHT22;8369;48.030;11.598;2023-03-23T06:27:06;9.00;99.90
16513;DHT22;8369;48.030;11.598;2023-03-23T06:29:33;9.10;99.90
16513;DHT22;8369;48.030;11.598;2023-03-23T06:32:01;9.10;99.90
16513;DHT22;8369;48.030;11.598;2023-03-23T06:34:28;9.10;99.90
16513;DHT22;8369;48.030;11.598;2023-03-23T06:36:54;9.20;99.90
16513;DHT22;8369;48.030;11.598;2023-03-23T06:39:20;9.20;99.90
16513;DHT22;8369;48.030;11.598;2023-03-23T06:41:48;9.30;99.90
16513;DHT22;8369;48.030;11.598;2023-03-23T06:44:14;9.30;99.90
16513;DHT22;8369;48.030;11.598;2023-03-23T06:46:44;9.30;99.90
16513;DHT22;8369;48.030;11.598;2023-03-23T06:49:10;9.40;99.90
16513;DHT22;8369;48.030;11.598;2023-03-23T06:51:37;9.40;99.90
16513;DHT22;8369;48.030;11.598;2023-03-23T06:54:04;9.40;99.90
16513;DHT22;8369;48.030;11.598;2023-03-23T06:56:30;9.50;99.90
16513;DHT22;8369;48.030;11.598;2023-03-23T06:58:57;9.50;99.90
16513;DHT22;8369;48.030;11.598;2023-03-23T07:01:23;9.50;99.90
16513;DHT22;8369;48.030;11.598;2023-03-23T07:03:49;9.60;99.90
16513;DHT22;8369;48.030;11.598;2023-03-23T07:06:15;9.60;99.90
16513;DHT22;8369;48.030;11.598;2023-03-23T07:08:44;9.60;99.90
16513;DHT22;8369;48.030;11.598;2023-03-23T07:11:10;9.70;99.90
16513;DHT22;8369;48.030;11.598;2023-03-23T07:13:36;9.80;99.90
16513;DHT22;8369;48.030;11.598;2023-03-23T07:16:06;9.80;99.90
16513;DHT22;8369;48.030;11.598;2023-03-23T07:18:36;9.90;99.90
16513;DHT22;8369;48.030;11.598;2023-03-23T07:21:02;9.90;99.90
16513;DHT22;8369;48.030;11.598;2023-03-23T07:23:31;10.00;99.90
16513;DHT22;8369;48.030;11.598;2023-03-23T07:25:57;10.10;99.90
16513;DHT22;8369;48.030;11.598;2023-03-23T07:28:24;10.10;99.90
16513;DHT22;8369;48.030;11.598;2023-03-23T07:30:51;10.20;99.90
16513;DHT22;8369;48.030;11.598;2023-03-23T07:33:17;10.30;99.90
16513;DHT22;8369;48.030;11.598;2023-03-23T07:35:44;10.30;99.90
16513;DHT22;8369;48.030;11.598;2023-03-23T07:38:13;10.40;99.90
16513;DHT22;8369;48.030;11.598;2023-03-23T07:40:39;10.50;99.90
16513;DHT22;8369;48.030;11.598;2023-03-23T07:43:06;10.60;99.90
16513;DHT22;8369;48.030;11.598;2023-03-23T07:45:32;10.70;99.90
16513;DHT22;8369;48.030;11.598;2023-03-23T07:47:59;10.80;99.90
16513;DHT22;8369;48.030;11.598;2023-03-23T07:50:26;10.90;99.90
16513;DHT22;8369;48.030;11.598;2023-03-23T07:52:56;11.00;99.90
16513;DHT22;8369;48.030;11.598;2023-03-23T07:55:23;11.10;99.90
16513;DHT22;8369;48.030;11.598;2023-03-23T07:57:51;11.20;99.90
16513;DHT22;8369;48.030;11.598;2023-03-23T08:00:21;11.30;99.90
16513;DHT22;8369;48.030;11.598;2023-03-23T08:02:56;11.40;99.90
16513;DHT22;8369;48.030;11.598;2023-03-23T08:05:24;11.50;99.90
16513;DHT22;8369;48.030;11.598;2023-03-23T08:07:52;11.60;99.90
16513;DHT22;8369;48.030;11.598;2023-03-23T08:10:23;11.70;99.90
16513;DHT22;8369;48.030;11.598;2023-03-23T08:12:55;11.80;99.90
16513;DHT22;8369;48.030;11.598;2023-03-23T08:15:22;11.90;99.90
16513;DHT22;8369;48.030;11.598;2023-03-23T08:17:52;12.10;99.90
16513;DHT22;8369;48.030;11.598;2023-03-23T08:20:21;12.20;99.90
16513;DHT22;8369;48.030;11.598;2023-03-23T08:22:57;12.30;99.90
16513;DHT22;8369;48.030;11.598;2023-03-23T08:25:24;12.40;99.90
16513;DHT22;8369;48.030;11.598;2023-03-23T08:27:52;12.50;99.90
16513;DHT22;8369;48.030;11.598;2023-03-23T08:30:20;12.50;99.90
16513;DHT22;8369;48.030;11.598;2023-03-23T08:32:48;12.60;99.90
16513;DHT22;8369;48.030;11.598;2023-03-23T08:35:18;12.70;99.90
16513;DHT22;8369;48.030;11.598;2023-03-23T08:37:45;12.70;99.90
16513;DHT22;8369;48.030;11.598;2023-03-23T08:40:13;12.80;99.90
16513;DHT22;8369;48.030;11.598;2023-03-23T08:42:43;12.90;99.90
16513;DHT22;8369;48.030;11.598;2023-03-23T08:45:12;12.90;99.90
16513;DHT22;8369;48.030;11.598;2023-03-23T08:47:41;13.00;99.90
16513;DHT22;8369;48.030;11.598;2023-03-23T08:50:10;13.00;99.90
16513;DHT22;8369;48.030;11.598;2023-03-23T08:52:36;13.10;99.90
16513;DHT22;8369;48.030;11.598;2023-03-23T08:55:03;13.10;99.90
16513;DHT22;8369;48.030;11.598;2023-03-23T08:57:31;13.20;99.90
16513;DHT22;8369;48.030;11.598;2023-03-23T08:59:57;13.30;99.90
16513;DHT22;8369;48.030;11.598;2023-03-23T09:02:26;13.30;99.90
16513;DHT22;8369;48.030;11.598;2023-03-23T09:04:53;13.40;99.90
16513;DHT22;8369;48.030;11.598;2023-03-23T09:07:20;13.40;99.90
16513;DHT22;8369;48.030;11.598;2023-03-23T09:09:46;13.50;99.90
16513;DHT22;8369;48.030;11.598;2023-03-23T09:12:12;13.50;99.90
16513;DHT22;8369;48.030;11.598;2023-03-23T09:14:39;13.60;99.90
16513;DHT22;8369;48.030;11.598;2023-03-23T09:17:05;13.60;99.90
16513;DHT22;8369;48.030;11.598;2023-03-23T09:19:33;13.70;99.90
16513;DHT22;8369;48.030;11.598;2023-03-23T09:22:00;13.70;99.90
16513;DHT22;8369;48.030;11.598;2023-03-23T09:24:27;13.80;99.90
16513;DHT22;8369;48.030;11.598;2023-03-23T09:26:53;13.90;99.90
16513;DHT22;8369;48.030;11.598;2023-03-23T09:29:21;13.90;99.90
16513;DHT22;8369;48.030;11.598;2023-03-23T09:31:47;14.00;99.90
16513;DHT22;8369;48.030;11.598;2023-03-23T09:34:14;14.00;99.90
16513;DHT22;8369;48.030;11.598;2023-03-23T09:36:44;14.00;99.90
16513;DHT22;8369;48.030;11.598;2023-03-23T09:39:11;14.10;99.90
16513;DHT22;8369;48.030;11.598;2023-03-23T09:44:54;14.20;99.90
16513;DHT22;8369;48.030;11.598;2023-03-23T09:47:55;14.30;99.90
16513;DHT22;8369;48.030;11.598;2023-03-23T09:50:28;14.30;99.90
16513;DHT22;8369;48.030;11.598;2023-03-23T09:53:00;14.40;99.90
16513;DHT22;8369;48.030;11.598;2023-03-23T09:55:27;14.40;99.90
16513;DHT22;8369;48.030;11.598;2023-03-23T09:58:01;14.50;99.90
16513;DHT22;8369;48.030;11.598;2023-03-23T10:00:41;14.50;99.90
16513;DHT22;8369;48.030;11.598;2023-03-23T10:03:21;14.50;99.90
16513;DHT22;8369;48.030;11.598;2023-03-23T10:05:53;14.60;99.90
16513;DHT22;8369;48.030;11.598;2023-03-23T10:08:23;14.70;99.90
16513;DHT22;8369;48.030;11.598;2023-03-23T10:15:50;15.00;99.90
16513;DHT22;8369;48.030;11.598;2023-03-23T10:18:20;15.00;99.90
16513;DHT22;8369;48.030;11.598;2023-03-23T10:20:48;15.10;99.90
16513;DHT22;8369;48.030;11.598;2023-03-23T10:26:04;15.20;99.90
16513;DHT22;8369;48.030;11.598;2023-03-23T10:28:50;15.20;99.90
16513;DHT22;8369;48.030;11.598;2023-03-23T10:31:24;15.30;99.60
16513;DHT22;8369;48.030;11.598;2023-03-23T10:33:55;15.30;99.90
16513;DHT22;8369;48.030;11.598;2023-03-23T10:36:30;15.30;99.90
16513;DHT22;8369;48.030;11.598;2023-03-23T10:39:16;15.30;99.90
16513;DHT22;8369;48.030;11.598;2023-03-23T10:41:43;15.20;99.90
16513;DHT22;8369;48.030;11.598;2023-03-23T10:44:20;15.20;99.90
16513;DHT22;8369;48.030;11.598;2023-03-23T10:49:19;15.10;99.10
16513;DHT22;8369;48.030;11.598;2023-03-23T10:54:52;15.10;99.80
16513;DHT22;8369;48.030;11.598;2023-03-23T10:57:26;15.10;99.70
16513;DHT22;8369;48.030;11.598;2023-03-23T11:00:03;15.10;98.90
16513;DHT22;8369;48.030;11.598;2023-03-23T11:02:39;15.10;98.80
16513;DHT22;8369;48.030;11.598;2023-03-23T11:05:18;15.10;98.90
16513;DHT22;8369;48.030;11.598;2023-03-23T11:07:56;15.10;99.20
16513;DHT22;8369;48.030;11.598;2023-03-23T11:10:37;15.20;99.80
16513;DHT22;8369;48.030;11.598;2023-03-23T11:13:04;15.20;99.80
16513;DHT22;8369;48.030;11.598;2023-03-23T11:15:44;15.30;99.40
16513;DHT22;8369;48.030;11.598;2023-03-23T11:20:44;15.30;98.50
16513;DHT22;8369;48.030;11.598;2023-03-23T11:23:31;15.40;99.30
16513;DHT22;8369;48.030;11.598;2023-03-23T11:28:35;15.50;99.30
16513;DHT22;8369;48.030;11.598;2023-03-23T11:31:05;15.50;99.40
16513;DHT22;8369;48.030;11.598;2023-03-23T11:33:47;15.50;99.10
16513;DHT22;8369;48.030;11.598;2023-03-23T11:36:14;15.50;98.70
16513;DHT22;8369;48.030;11.598;2023-03-23T11:38:40;15.50;98.50
16513;DHT22;8369;48.030;11.598;2023-03-23T11:41:10;15.60;96.50
16513;DHT22;8369;48.030;11.598;2023-03-23T11:43:40;15.60;96.20
16513;DHT22;8369;48.030;11.598;2023-03-23T11:49:01;15.80;94.10
16513;DHT22;8369;48.030;11.598;2023-03-23T11:51:51;15.80;95.10
16513;DHT22;8369;48.030;11.598;2023-03-23T11:56:57;15.90;95.50
16513;DHT22;8369;48.030;11.598;2023-03-23T11:59:34;16.00;95.60
16513;DHT22;8369;48.030;11.598;2023-03-23T12:08:01;16.30;93.60
16513;DHT22;8369;48.030;11.598;2023-03-23T12:13:40;16.40;94.80
16513;DHT22;8369;48.030;11.598;2023-03-23T12:33:32;16.90;88.00
16513;DHT22;8369;48.030;11.598;2023-03-23T12:41:29;17.00;85.60
16513;DHT22;8369;48.030;11.598;2023-03-23T12:44:03;17.00;84.40
16513;DHT22;8369;48.030;11.598;2023-03-23T12:57:24;17.00;86.50
16513;DHT22;8369;48.030;11.598;2023-03-23T13:00:17;17.10;85.60
16513;DHT22;8369;48.030;11.598;2023-03-23T13:03:14;17.10;83.70
16513;DHT22;8369;48.030;11.598;2023-03-23T13:05:47;17.10;79.10
16513;DHT22;8369;48.030;11.598;2023-03-23T13:08:45;17.20;78.70
16513;DHT22;8369;48.030;11.598;2023-03-23T13:11:37;17.30;79.40
16513;DHT22;8369;48.030;11.598;2023-03-23T13:17:26;17.30;78.50
16513;DHT22;8369;48.030;11.598;2023-03-23T13:20:13;17.20;80.20
16513;DHT22;8369;48.030;11.598;2023-03-23T13:28:47;17.10;79.60
16513;DHT22;8369;48.030;11.598;2023-03-23T13:31:16;17.10;79.10
16513;DHT22;8369;48.030;11.598;2023-03-23T13:33:49;17.10;78.70
16513;DHT22;8369;48.030;11.598;2023-03-23T13:36:19;17.10;79.90
16513;DHT22;8369;48.030;11.598;2023-03-23T13:38:50;17.10;79.10
16513;DHT22;8369;48.030;11.598;2023-03-23T13:41:18;17.10;77.90
16513;DHT22;8369;48.030;11.598;2023-03-23T13:43:47;17.20;76.10
16513;DHT22;8369;48.030;11.598;2023-03-23T13:46:30;17.20;78.70
16513;DHT22;8369;48.030;11.598;2023-03-23T13:49:13;17.30;76.40
16513;DHT22;8369;48.030;11.598;2023-03-23T13:54:25;17.30;78.50
16513;DHT22;8369;48.030;11.598;2023-03-23T13:56:59;17.30;75.30
16513;DHT22;8369;48.030;11.598;2023-03-23T14:02:26;17.30;76.20
16513;DHT22;8369;48.030;11.598;2023-03-23T14:04:46;17.30;78.20
16513;DHT22;8369;48.030;11.598;2023-03-23T14:07:16;17.30;79.10
16513;DHT22;8369;48.030;11.598;2023-03-23T14:09:45;17.30;77.90
16513;DHT22;8369;48.030;11.598;2023-03-23T14:12:20;17.30;78.20
16513;DHT22;8369;48.030;11.598;2023-03-23T14:15:13;17.40;77.40
16513;DHT22;8369;48.030;11.598;2023-03-23T14:17:42;17.50;78.20
16513;DHT22;8369;48.030;11.598;2023-03-23T14:20:24;17.40;78.70
16513;DHT22;8369;48.030;11.598;2023-03-23T14:22:54;17.50;77.80
16513;DHT22;8369;48.030;11.598;2023-03-23T14:25:21;17.60;76.70
16513;DHT22;8369;48.030;11.598;2023-03-23T14:27:51;17.60;76.80
16513;DHT22;8369;48.030;11.598;2023-03-23T14:30:21;17.50;79.60
16513;DHT22;8369;48.030;11.598;2023-03-23T14:32:47;17.40;80.50
16513;DHT22;8369;48.030;11.598;2023-03-23T14:35:37;17.40;81.90
16513;DHT22;8369;48.030;11.598;2023-03-23T14:38:04;17.30;79.30
16513;DHT22;8369;48.030;11.598;2023-03-23T14:40:36;17.30;81.60
16513;DHT22;8369;48.030;11.598;2023-03-23T14:43:02;17.30;82.40
16513;DHT22;8369;48.030;11.598;2023-03-23T14:45:32;17.20;83.30
16513;DHT22;8369;48.030;11.598;2023-03-23T14:48:01;17.20;83.00
16513;DHT22;8369;48.030;11.598;2023-03-23T14:50:30;17.20;84.20
16513;DHT22;8369;48.030;11.598;2023-03-23T14:53:12;17.20;81.50
16513;DHT22;8369;48.030;11.598;2023-03-23T14:55:42;17.20;81.40
16513;DHT22;8369;48.030;11.598;2023-03-23T14:58:12;17.20;81.80
16513;DHT22;8369;48.030;11.598;2023-03-23T15:00:42;17.10;81.60
16513;DHT22;8369;48.030;11.598;2023-03-23T15:03:16;17.00;80.30
16513;DHT22;8369;48.030;11.598;2023-03-23T15:05:46;17.00;81.90
16513;DHT22;8369;48.030;11.598;2023-03-23T15:08:19;16.90;82.20
16513;DHT22;8369;48.030;11.598;2023-03-23T15:11:13;16.80;82.40
16513;DHT22;8369;48.030;11.598;2023-03-23T15:13:52;16.80;84.80
16513;DHT22;8369;48.030;11.598;2023-03-23T15:16:31;16.80;83.90
16513;DHT22;8369;48.030;11.598;2023-03-23T15:19:04;16.60;84.20
16513;DHT22;8369;48.030;11.598;2023-03-23T15:21:38;16.50;85.60
16513;DHT22;8369;48.030;11.598;2023-03-23T15:24:41;16.60;85.40
16513;DHT22;8369;48.030;11.598;2023-03-23T15:29:52;16.40;86.80
16513;DHT22;8369;48.030;11.598;2023-03-23T15:32:27;16.40;87.70
16513;DHT22;8369;48.030;11.598;2023-03-23T15:34:54;16.30;88.00
16513;DHT22;8369;48.030;11.598;2023-03-23T15:37:28;16.30;89.40
16513;DHT22;8369;48.030;11.598;2023-03-23T15:39:58;16.40;87.90
16513;DHT22;8369;48.030;11.598;2023-03-23T15:42:31;16.30;88.90
16513;DHT22;8369;48.030;11.598;2023-03-23T15:52:52;16.10;89.40
16513;DHT22;8369;48.030;11.598;2023-03-23T15:55:29;16.10;90.10
16513;DHT22;8369;48.030;11.598;2023-03-23T15:57:57;16.00;90.80
16513;DHT22;8369;48.030;11.598;2023-03-23T16:00:25;16.00;91.10
16513;DHT22;8369;48.030;11.598;2023-03-23T16:03:01;16.00;90.80
16513;DHT22;8369;48.030;11.598;2023-03-23T16:05:29;16.00;91.10
16513;DHT22;8369;48.030;11.598;2023-03-23T16:07:55;15.90;91.10
16513;DHT22;8369;48.030;11.598;2023-03-23T16:10:28;15.90;91.50
16513;DHT22;8369;48.030;11.598;2023-03-23T16:12:57;15.90;91.30
16513;DHT22;8369;48.030;11.598;2023-03-23T16:15:26;15.80;91.30
16513;DHT22;8369;48.030;11.598;2023-03-23T16:17:55;15.70;92.00
16513;DHT22;8369;48.030;11.598;2023-03-23T16:20:23;15.70;92.60
16513;DHT22;8369;48.030;11.598;2023-03-23T16:22:53;15.60;94.10
16513;DHT22;8369;48.030;11.598;2023-03-23T16:25:19;15.60;95.60
16513;DHT22;8369;48.030;11.598;2023-03-23T16:27:45;15.50;96.60
16513;DHT22;8369;48.030;11.598;2023-03-23T16:30:24;15.50;97.70
16513;DHT22;8369;48.030;11.598;2023-03-23T16:32:51;15.40;98.50
16513;DHT22;8369;48.030;11.598;2023-03-23T16:35:22;15.40;98.70
16513;DHT22;8369;48.030;11.598;2023-03-23T16:37:55;15.30;99.40
16513;DHT22;8369;48.030;11.598;2023-03-23T16:40:21;15.20;99.70
16513;DHT22;8369;48.030;11.598;2023-03-23T16:42:52;15.20;99.90
16513;DHT22;8369;48.030;11.598;2023-03-23T16:45:19;15.10;99.90
16513;DHT22;8369;48.030;11.598;2023-03-23T16:47:45;15.10;99.90
16513;DHT22;8369;48.030;11.598;2023-03-23T16:50:14;15.00;99.90
16513;DHT22;8369;48.030;11.598;2023-03-23T16:52:41;14.90;99.90
16513;DHT22;8369;48.030;11.598;2023-03-23T16:55:09;14.90;99.90
16513;DHT22;8369;48.030;11.598;2023-03-23T16:57:35;14.90;99.90
16513;DHT22;8369;48.030;11.598;2023-03-23T17:00:04;14.80;99.90
16513;DHT22;8369;48.030;11.598;2023-03-23T17:02:40;14.80;99.90
16513;DHT22;8369;48.030;11.598;2023-03-23T17:05:06;14.70;99.90
16513;DHT22;8369;48.030;11.598;2023-03-23T17:07:42;14.70;99.90
16513;DHT22;8369;48.030;11.598;2023-03-23T17:10:09;14.70;99.90
16513;DHT22;8369;48.030;11.598;2023-03-23T17:12:35;14.70;99.90
16513;DHT22;8369;48.030;11.598;2023-03-23T17:15:02;14.70;99.90
16513;DHT22;8369;48.030;11.598;2023-03-23T17:17:31;14.60;99.90
16513;DHT22;8369;48.030;11.598;2023-03-23T17:19:57;14.60;99.90
16513;DHT22;8369;48.030;11.598;2023-03-23T17:22:23;14.60;99.90
16513;DHT22;8369;48.030;11.598;2023-03-23T17:24:49;14.50;99.90
16513;DHT22;8369;48.030;11.598;2023-03-23T17:27:17;14.50;99.90
16513;DHT22;8369;48.030;11.598;2023-03-23T17:29:44;14.40;99.90
16513;DHT22;8369;48.030;11.598;2023-03-23T17:32:14;14.40;99.90
16513;DHT22;8369;48.030;11.598;2023-03-23T17:34:40;14.40;99.90
16513;DHT22;8369;48.030;11.598;2023-03-23T17:37:06;14.30;99.90
16513;DHT22;8369;48.030;11.598;2023-03-23T17:39:33;14.30;99.90
16513;DHT22;8369;48.030;11.598;2023-03-23T17:42:01;14.30;99.90
16513;DHT22;8369;48.030;11.598;2023-03-23T17:44:28;14.20;99.90
16513;DHT22;8369;48.030;11.598;2023-03-23T17:46:54;14.20;99.90
16513;DHT22;8369;48.030;11.598;2023-03-23T17:49:26;14.20;99.90
16513;DHT22;8369;48.030;11.598;2023-03-23T17:51:52;14.20;99.90
16513;DHT22;8369;48.030;11.598;2023-03-23T17:54:18;14.10;99.90
16513;DHT22;8369;48.030;11.598;2023-03-23T17:56:43;14.10;99.90
16513;DHT22;8369;48.030;11.598;2023-03-23T17:59:09;14.10;99.90
16513;DHT22;8369;48.030;11.598;2023-03-23T18:01:35;14.10;99.90
16513;DHT22;8369;48.030;11.598;2023-03-23T18:04:01;14.10;99.90
16513;DHT22;8369;48.030;11.598;2023-03-23T18:06:29;14.00;99.90
16513;DHT22;8369;48.030;11.598;2023-03-23T18:08:57;14.00;99.90
16513;DHT22;8369;48.030;11.598;2023-03-23T18:11:23;14.00;99.90
16513;DHT22;8369;48.030;11.598;2023-03-23T18:13:49;13.90;99.90
16513;DHT22;8369;48.030;11.598;2023-03-23T18:16:15;13.90;99.90